sensor_id;sensor_type;location;lat;lon;timestamp;pressure;altitude;pressure_sealevel;temperature
69785;BMP280;14177;51.520;6.764;2022-12-07T00:01:08;101522.88;;;5.88
69785;BMP280;14177;51.520;6.764;2022-12-07T00:03:37;101540.03;;;5.91
69785;BMP280;14177;51.520;6.764;2022-12-07T00:06:06;101537.47;;;5.91
69785;BMP280;14177;51.520;6.764;2022-12-07T00:08:35;101532.31;;;5.94
69785;BMP280;14177;51.520;6.764;2022-12-07T00:13:31;101535.75;;;5.93
69785;BMP280;14177;51.520;6.764;2022-12-07T00:16:09;101540.91;;;5.96
69785;BMP280;14177;51.520;6.764;2022-12-07T00:18:37;101533.16;;;5.96
69785;BMP280;14177;51.520;6.764;2022-12-07T00:23:35;101534.03;;;5.97
69785;BMP280;14177;51.520;6.764;2022-12-07T00:28:41;101527.16;;;5.97
69785;BMP280;14177;51.520;6.764;2022-12-07T00:31:11;101534.03;;;6.00
69785;BMP280;14177;51.520;6.764;2022-12-07T00:33:41;101527.16;;;5.99
69785;BMP280;14177;51.520;6.764;2022-12-07T00:36:11;101527.16;;;5.97
69785;BMP280;14177;51.520;6.764;2022-12-07T00:38:38;101522.00;;;5.95
69785;BMP280;14177;51.520;6.764;2022-12-07T00:41:09;101519.44;;;5.95
69785;BMP280;14177;51.520;6.764;2022-12-07T00:43:37;101516.84;;;5.94
69785;BMP280;14177;51.520;6.764;2022-12-07T00:46:04;101513.38;;;5.92
69785;BMP280;14177;51.520;6.764;2022-12-07T00:48:31;101523.72;;;5.92
69785;BMP280;14177;51.520;6.764;2022-12-07T00:50:58;101521.16;;;5.90
69785;BMP280;14177;51.520;6.764;2022-12-07T00:53:25;101514.28;;;5.89
69785;BMP280;14177;51.520;6.764;2022-12-07T00:55:51;101515.97;;;5.89
69785;BMP280;14177;51.520;6.764;2022-12-07T00:58:19;101510.84;;;5.87
69785;BMP280;14177;51.520;6.764;2022-12-07T01:00:46;101506.53;;;5.85
69785;BMP280;14177;51.520;6.764;2022-12-07T01:03:14;101509.94;;;5.84
69785;BMP280;14177;51.520;6.764;2022-12-07T01:05:50;101509.09;;;5.86
69785;BMP280;14177;51.520;6.764;2022-12-07T01:08:17;101506.53;;;5.85
69785;BMP280;14177;51.520;6.764;2022-12-07T01:10:44;101504.78;;;5.84
69785;BMP280;14177;51.520;6.764;2022-12-07T01:13:11;101499.63;;;5.84
69785;BMP280;14177;51.520;6.764;2022-12-07T01:15:42;101506.53;;;5.83
69785;BMP280;14177;51.520;6.764;2022-12-07T01:18:10;101501.41;;;5.82
69785;BMP280;14177;51.520;6.764;2022-12-07T01:20:37;101505.69;;;5.80
69785;BMP280;14177;51.520;6.764;2022-12-07T01:23:04;101508.28;;;5.80
69785;BMP280;14177;51.520;6.764;2022-12-07T01:25:31;101510.00;;;5.78
69785;BMP280;14177;51.520;6.764;2022-12-07T01:27:58;101503.06;;;5.77
69785;BMP280;14177;51.520;6.764;2022-12-07T01:30:25;101510.00;;;5.78
69785;BMP280;14177;51.520;6.764;2022-12-07T01:32:52;101511.69;;;5.76
69785;BMP280;14177;51.520;6.764;2022-12-07T01:35:19;101512.50;;;5.76
69785;BMP280;14177;51.520;6.764;2022-12-07T01:37:48;101509.94;;;5.75
69785;BMP280;14177;51.520;6.764;2022-12-07T01:40:15;101509.09;;;5.73
69785;BMP280;14177;51.520;6.764;2022-12-07T01:42:42;101509.06;;;5.71
69785;BMP280;14177;51.520;6.764;2022-12-07T01:47:48;101511.66;;;5.67
69785;BMP280;14177;51.520;6.764;2022-12-07T01:50:19;101514.22;;;5.65
69785;BMP280;14177;51.520;6.764;2022-12-07T01:52:49;101514.25;;;5.64
69785;BMP280;14177;51.520;6.764;2022-12-07T01:55:17;101515.09;;;5.60
69785;BMP280;14177;51.520;6.764;2022-12-07T01:57:48;101510.78;;;5.57
69785;BMP280;14177;51.520;6.764;2022-12-07T02:00:17;101504.78;;;5.57
69785;BMP280;14177;51.520;6.764;2022-12-07T02:02:52;101515.09;;;5.54
69785;BMP280;14177;51.520;6.764;2022-12-07T03:18:56;101512.31;;;4.76
69785;BMP280;14177;51.520;6.764;2022-12-07T03:21:27;101511.47;;;4.74
69785;BMP280;14177;51.520;6.764;2022-12-07T03:23:58;101521.75;;;4.71
69785;BMP280;14177;51.520;6.764;2022-12-07T03:26:35;101512.28;;;4.67
69785;BMP280;14177;51.520;6.764;2022-12-07T03:29:08;101517.44;;;4.66
69785;BMP280;14177;51.520;6.764;2022-12-07T03:31:40;101504.53;;;4.61
69785;BMP280;14177;51.520;6.764;2022-12-07T03:34:16;101505.38;;;4.60
69785;BMP280;14177;51.520;6.764;2022-12-07T03:36:48;101509.66;;;4.58
69785;BMP280;14177;51.520;6.764;2022-12-07T03:40:13;101508.81;;;4.56
69785;BMP280;14177;51.520;6.764;2022-12-07T03:42:39;101505.38;;;4.57
69785;BMP280;14177;51.520;6.764;2022-12-07T03:45:07;101506.22;;;4.56
69785;BMP280;14177;51.520;6.764;2022-12-07T03:48:20;101499.38;;;4.58
69785;BMP280;14177;51.520;6.764;2022-12-07T03:50:29;101502.81;;;4.60
69785;BMP280;14177;51.520;6.764;2022-12-07T03:53:58;101499.41;;;4.60
69785;BMP280;14177;51.520;6.764;2022-12-07T03:56:21;101501.97;;;4.60
69785;BMP280;14177;51.520;6.764;2022-12-07T03:58:49;101507.13;;;4.60
69785;BMP280;14177;51.520;6.764;2022-12-07T04:01:17;101496.81;;;4.61
69785;BMP280;14177;51.520;6.764;2022-12-07T04:03:45;101500.25;;;4.62
69785;BMP280;14177;51.520;6.764;2022-12-07T04:06:12;101503.66;;;4.59
69785;BMP280;14177;51.520;6.764;2022-12-07T04:08:38;101504.53;;;4.57
69785;BMP280;14177;51.520;6.764;2022-12-07T04:11:05;101502.78;;;4.57
69785;BMP280;14177;51.520;6.764;2022-12-07T04:13:32;101499.34;;;4.55
69785;BMP280;14177;51.520;6.764;2022-12-07T04:16:19;101499.38;;;4.54
69785;BMP280;14177;51.520;6.764;2022-12-07T04:19:22;101496.78;;;4.54
69785;BMP280;14177;51.520;6.764;2022-12-07T04:21:55;101504.47;;;4.49
69785;BMP280;14177;51.520;6.764;2022-12-07T04:24:23;101501.03;;;4.46
69785;BMP280;14177;51.520;6.764;2022-12-07T04:26:50;101505.28;;;4.42
69785;BMP280;14177;51.520;6.764;2022-12-07T04:29:17;101499.25;;;4.37
69785;BMP280;14177;51.520;6.764;2022-12-07T04:31:44;101500.16;;;4.36
69785;BMP280;14177;51.520;6.764;2022-12-07T04:34:11;101502.69;;;4.33
69785;BMP280;14177;51.520;6.764;2022-12-07T04:36:40;101495.84;;;4.32
69785;BMP280;14177;51.520;6.764;2022-12-07T04:39:26;101507.81;;;4.30
69785;BMP280;14177;51.520;6.764;2022-12-07T04:42:17;101502.66;;;4.27
69785;BMP280;14177;51.520;6.764;2022-12-07T04:44:52;101505.22;;;4.26
69785;BMP280;14177;51.520;6.764;2022-12-07T04:47:21;101504.38;;;4.25
69785;BMP280;14177;51.520;6.764;2022-12-07T04:49:47;101498.38;;;4.26
69785;BMP280;14177;51.520;6.764;2022-12-07T04:52:14;101497.50;;;4.29
69785;BMP280;14177;51.520;6.764;2022-12-07T04:54:41;101500.97;;;4.29
69785;BMP280;14177;51.520;6.764;2022-12-07T04:57:11;101499.25;;;4.31
69785;BMP280;14177;51.520;6.764;2022-12-07T04:59:44;101500.97;;;4.32
69785;BMP280;14177;51.520;6.764;2022-12-07T05:02:11;101499.28;;;4.34
69785;BMP280;14177;51.520;6.764;2022-12-07T05:04:39;101497.56;;;4.36
69785;BMP280;14177;51.520;6.764;2022-12-07T05:07:05;101496.72;;;4.39
69785;BMP280;14177;51.520;6.764;2022-12-07T05:09:33;101490.69;;;4.38
69785;BMP280;14177;51.520;6.764;2022-12-07T05:12:01;101489.84;;;4.38
69785;BMP280;14177;51.520;6.764;2022-12-07T05:14:29;101494.13;;;4.40
69785;BMP280;14177;51.520;6.764;2022-12-07T05:16:57;101495.00;;;4.41
69785;BMP280;14177;51.520;6.764;2022-12-07T05:19:26;101501.03;;;4.43
69785;BMP280;14177;51.520;6.764;2022-12-07T05:21:54;101488.16;;;4.43
69785;BMP280;14177;51.520;6.764;2022-12-07T05:24:21;101489.00;;;4.43
69785;BMP280;14177;51.520;6.764;2022-12-07T05:26:49;101490.72;;;4.43
69785;BMP280;14177;51.520;6.764;2022-12-07T05:29:21;101496.72;;;4.43
69785;BMP280;14177;51.520;6.764;2022-12-07T05:31:54;101499.28;;;4.43
69785;BMP280;14177;51.520;6.764;2022-12-07T05:34:21;101497.59;;;4.45
69785;BMP280;14177;51.520;6.764;2022-12-07T05:36:48;101497.63;;;4.47
69785;BMP280;14177;51.520;6.764;2022-12-07T05:39:16;101484.75;;;4.47
69785;BMP280;14177;51.520;6.764;2022-12-07T05:41:43;101497.59;;;4.48
69785;BMP280;14177;51.520;6.764;2022-12-07T05:44:29;101487.31;;;4.48
69785;BMP280;14177;51.520;6.764;2022-12-07T05:46:57;101485.59;;;4.47
69785;BMP280;14177;51.520;6.764;2022-12-07T05:49:26;101491.59;;;4.49
69785;BMP280;14177;51.520;6.764;2022-12-07T05:51:53;101483.91;;;4.48
69785;BMP280;14177;51.520;6.764;2022-12-07T05:54:21;101486.44;;;4.46
69785;BMP280;14177;51.520;6.764;2022-12-07T05:56:49;101486.44;;;4.46
69785;BMP280;14177;51.520;6.764;2022-12-07T05:59:18;101492.44;;;4.45
69785;BMP280;14177;51.520;6.764;2022-12-07T06:01:56;101491.59;;;4.45
69785;BMP280;14177;51.520;6.764;2022-12-07T06:04:26;101484.72;;;4.44
69785;BMP280;14177;51.520;6.764;2022-12-07T06:06:56;101484.72;;;4.42
69785;BMP280;14177;51.520;6.764;2022-12-07T06:09:26;101486.44;;;4.42
69785;BMP280;14177;51.520;6.764;2022-12-07T06:11:57;101484.72;;;4.41
69785;BMP280;14177;51.520;6.764;2022-12-07T06:14:44;101485.56;;;4.41
69785;BMP280;14177;51.520;6.764;2022-12-07T06:17:15;101483.84;;;4.40
69785;BMP280;14177;51.520;6.764;2022-12-07T06:19:50;101483.84;;;4.40
69785;BMP280;14177;51.520;6.764;2022-12-07T06:22:17;101491.56;;;4.39
69785;BMP280;14177;51.520;6.764;2022-12-07T06:24:59;101500.16;;;4.36
69785;BMP280;14177;51.520;6.764;2022-12-07T06:27:37;101504.41;;;4.37
69785;BMP280;14177;51.520;6.764;2022-12-07T06:30:04;101499.28;;;4.40
69785;BMP280;14177;51.520;6.764;2022-12-07T06:32:33;101498.44;;;4.40
69785;BMP280;14177;51.520;6.764;2022-12-07T06:35:26;101500.16;;;4.44
69785;BMP280;14177;51.520;6.764;2022-12-07T06:37:52;101501.88;;;4.43
69785;BMP280;14177;51.520;6.764;2022-12-07T06:40:25;101499.31;;;4.42
69785;BMP280;14177;51.520;6.764;2022-12-07T06:42:52;101493.28;;;4.41
69785;BMP280;14177;51.520;6.764;2022-12-07T06:45:28;101497.56;;;4.42
69785;BMP280;14177;51.520;6.764;2022-12-07T06:47:55;101497.56;;;4.42
69785;BMP280;14177;51.520;6.764;2022-12-07T06:50:23;101501.88;;;4.46
69785;BMP280;14177;51.520;6.764;2022-12-07T06:52:55;101504.47;;;4.46
69785;BMP280;14177;51.520;6.764;2022-12-07T06:55:24;101505.34;;;4.47
69785;BMP280;14177;51.520;6.764;2022-12-07T06:57:52;101513.94;;;4.49
69785;BMP280;14177;51.520;6.764;2022-12-07T07:00:25;101502.75;;;4.48
69785;BMP280;14177;51.520;6.764;2022-12-07T07:03:01;101496.75;;;4.48
69785;BMP280;14177;51.520;6.764;2022-12-07T07:05:31;101507.03;;;4.46
69785;BMP280;14177;51.520;6.764;2022-12-07T07:08:18;101496.75;;;4.46
69785;BMP280;14177;51.520;6.764;2022-12-07T07:11:52;101498.44;;;4.40
69785;BMP280;14177;51.520;6.764;2022-12-07T07:14:22;101502.69;;;4.39
69785;BMP280;14177;51.520;6.764;2022-12-07T07:16:52;101500.97;;;4.38
69785;BMP280;14177;51.520;6.764;2022-12-07T07:19:23;101505.28;;;4.36
69785;BMP280;14177;51.520;6.764;2022-12-07T07:21:51;101501.84;;;4.37
69785;BMP280;14177;51.520;6.764;2022-12-07T07:24:19;101503.56;;;4.37
69785;BMP280;14177;51.520;6.764;2022-12-07T07:26:51;101500.97;;;4.38
69785;BMP280;14177;51.520;6.764;2022-12-07T07:29:29;101513.88;;;4.41
69785;BMP280;14177;51.520;6.764;2022-12-07T07:32:30;101506.97;;;4.37
69785;BMP280;14177;51.520;6.764;2022-12-07T07:35:11;101510.44;;;4.38
69785;BMP280;14177;51.520;6.764;2022-12-07T07:37:38;101506.13;;;4.37
69785;BMP280;14177;51.520;6.764;2022-12-07T07:40:06;101506.97;;;4.37
69785;BMP280;14177;51.520;6.764;2022-12-07T07:42:33;101506.97;;;4.36
69785;BMP280;14177;51.520;6.764;2022-12-07T07:45:00;101505.28;;;4.36
69785;BMP280;14177;51.520;6.764;2022-12-07T07:47:27;101507.00;;;4.40
69785;BMP280;14177;51.520;6.764;2022-12-07T07:49:55;101514.72;;;4.43
69785;BMP280;14177;51.520;6.764;2022-12-07T07:52:22;101501.03;;;4.43
69785;BMP280;14177;51.520;6.764;2022-12-07T07:54:49;101501.91;;;4.45
69785;BMP280;14177;51.520;6.764;2022-12-07T07:57:16;101506.19;;;4.47
69785;BMP280;14177;51.520;6.764;2022-12-07T07:59:44;101513.03;;;4.48
69785;BMP280;14177;51.520;6.764;2022-12-07T08:02:19;101513.03;;;4.48
69785;BMP280;14177;51.520;6.764;2022-12-07T08:04:46;101509.63;;;4.49
69785;BMP280;14177;51.520;6.764;2022-12-07T08:07:13;101516.50;;;4.50
69785;BMP280;14177;51.520;6.764;2022-12-07T08:09:41;101518.22;;;4.51
69785;BMP280;14177;51.520;6.764;2022-12-07T08:12:08;101513.06;;;4.54
69785;BMP280;14177;51.520;6.764;2022-12-07T08:14:36;101519.09;;;4.55
69785;BMP280;14177;51.520;6.764;2022-12-07T08:17:03;101518.25;;;4.57
69785;BMP280;14177;51.520;6.764;2022-12-07T08:19:30;101519.97;;;4.58
69785;BMP280;14177;51.520;6.764;2022-12-07T08:21:56;101511.38;;;4.55
69785;BMP280;14177;51.520;6.764;2022-12-07T08:24:23;101513.94;;;4.53
69785;BMP280;14177;51.520;6.764;2022-12-07T08:26:51;101514.78;;;4.52
69785;BMP280;14177;51.520;6.764;2022-12-07T08:29:19;101521.66;;;4.52
69785;BMP280;14177;51.520;6.764;2022-12-07T08:31:46;101525.94;;;4.51
69785;BMP280;14177;51.520;6.764;2022-12-07T08:34:13;101525.06;;;4.49
69785;BMP280;14177;51.520;6.764;2022-12-07T08:36:40;101528.47;;;4.48
69785;BMP280;14177;51.520;6.764;2022-12-07T08:39:07;101528.47;;;4.48
69785;BMP280;14177;51.520;6.764;2022-12-07T08:41:53;101518.22;;;4.51
69785;BMP280;14177;51.520;6.764;2022-12-07T08:44:21;101526.78;;;4.53
69785;BMP280;14177;51.520;6.764;2022-12-07T08:46:56;101531.94;;;4.53
69785;BMP280;14177;51.520;6.764;2022-12-07T08:49:28;101533.66;;;4.54
69785;BMP280;14177;51.520;6.764;2022-12-07T08:51:57;101527.66;;;4.55
69785;BMP280;14177;51.520;6.764;2022-12-07T08:54:24;101535.41;;;4.58
69785;BMP280;14177;51.520;6.764;2022-12-07T08:56:54;101521.69;;;4.59
69785;BMP280;14177;51.520;6.764;2022-12-07T08:59:26;101532.88;;;4.64
69785;BMP280;14177;51.520;6.764;2022-12-07T09:01:54;101526.88;;;4.68
69785;BMP280;14177;51.520;6.764;2022-12-07T09:04:20;101526.91;;;4.74
69785;BMP280;14177;51.520;6.764;2022-12-07T09:06:47;101530.38;;;4.86
69785;BMP280;14177;51.520;6.764;2022-12-07T09:09:15;101516.72;;;5.04
69785;BMP280;14177;51.520;6.764;2022-12-07T09:11:42;101523.69;;;5.53
69785;BMP280;14177;51.520;6.764;2022-12-07T09:14:08;101519.44;;;5.95
69785;BMP280;14177;51.520;6.764;2022-12-07T09:16:35;101521.97;;;6.14
69785;BMP280;14177;51.520;6.764;2022-12-07T09:19:02;101518.53;;;6.06
69785;BMP280;14177;51.520;6.764;2022-12-07T09:21:29;101525.44;;;5.97
69785;BMP280;14177;51.520;6.764;2022-12-07T09:23:56;101521.16;;;5.90
69785;BMP280;14177;51.520;6.764;2022-12-07T09:26:23;101520.31;;;5.78
69785;BMP280;14177;51.520;6.764;2022-12-07T09:28:49;101521.97;;;5.67
69785;BMP280;14177;51.520;6.764;2022-12-07T09:31:16;101521.09;;;5.60
69785;BMP280;14177;51.520;6.764;2022-12-07T09:33:59;101531.41;;;5.54
69785;BMP280;14177;51.520;6.764;2022-12-07T09:36:27;101527.13;;;5.52
69785;BMP280;14177;51.520;6.764;2022-12-07T09:38:54;101527.97;;;5.54
69785;BMP280;14177;51.520;6.764;2022-12-07T09:41:23;101528.00;;;5.63
69785;BMP280;14177;51.520;6.764;2022-12-07T09:43:52;101523.69;;;5.77
69785;BMP280;14177;51.520;6.764;2022-12-07T09:46:20;101527.13;;;5.76
69785;BMP280;14177;51.520;6.764;2022-12-07T09:48:48;101516.00;;;5.81
69785;BMP280;14177;51.520;6.764;2022-12-07T09:53:51;101510.84;;;5.87
69785;BMP280;14177;51.520;6.764;2022-12-07T09:56:19;101509.94;;;5.90
69785;BMP280;14177;51.520;6.764;2022-12-07T09:58:46;101508.22;;;5.92
69785;BMP280;14177;51.520;6.764;2022-12-07T10:01:20;101509.94;;;5.93
69785;BMP280;14177;51.520;6.764;2022-12-07T10:04:02;101511.66;;;5.94
69785;BMP280;14177;51.520;6.764;2022-12-07T10:06:32;101509.09;;;5.95
69785;BMP280;14177;51.520;6.764;2022-12-07T10:08:59;101505.66;;;5.92
69785;BMP280;14177;51.520;6.764;2022-12-07T10:11:26;101505.66;;;6.02
69785;BMP280;14177;51.520;6.764;2022-12-07T10:13:53;101509.97;;;6.03
69785;BMP280;14177;51.520;6.764;2022-12-07T10:18:50;101503.03;;;6.21
69785;BMP280;14177;51.520;6.764;2022-12-07T10:21:22;101501.31;;;6.29
69785;BMP280;14177;51.520;6.764;2022-12-07T10:24:00;101492.69;;;6.36
69785;BMP280;14177;51.520;6.764;2022-12-07T10:26:35;101490.94;;;6.47
69785;BMP280;14177;51.520;6.764;2022-12-07T10:31:54;101485.69;;;6.65
69785;BMP280;14177;51.520;6.764;2022-12-07T10:34:25;101487.38;;;6.69
69785;BMP280;14177;51.520;6.764;2022-12-07T10:36:53;101476.19;;;6.75
69785;BMP280;14177;51.520;6.764;2022-12-07T10:39:47;101472.66;;;6.89
69785;BMP280;14177;51.520;6.764;2022-12-07T10:44:49;101473.41;;;7.11
69785;BMP280;14177;51.520;6.764;2022-12-07T10:47:25;101463.13;;;7.00
69785;BMP280;14177;51.520;6.764;2022-12-07T10:50:14;101464.03;;;6.96
69785;BMP280;14177;51.520;6.764;2022-12-07T10:53:03;101466.59;;;6.99
69785;BMP280;14177;51.520;6.764;2022-12-07T10:58:46;101458.00;;;6.94
69785;BMP280;14177;51.520;6.764;2022-12-07T11:01:43;101459.72;;;6.94
69785;BMP280;14177;51.520;6.764;2022-12-07T11:07:20;101460.66;;;6.87
69785;BMP280;14177;51.520;6.764;2022-12-07T11:09:55;101446.84;;;6.86
69785;BMP280;14177;51.520;6.764;2022-12-07T11:12:43;101451.13;;;6.90
69785;BMP280;14177;51.520;6.764;2022-12-07T11:15:26;101448.50;;;6.95
69785;BMP280;14177;51.520;6.764;2022-12-07T11:18:34;101444.19;;;6.97
69785;BMP280;14177;51.520;6.764;2022-12-07T11:27:09;101429.44;;;7.14
69785;BMP280;14177;51.520;6.764;2022-12-07T11:29:53;101430.97;;;7.41
69785;BMP280;14177;51.520;6.764;2022-12-07T11:35:18;101423.09;;;7.55
69785;BMP280;14177;51.520;6.764;2022-12-07T11:37:47;101423.97;;;7.55
69785;BMP280;14177;51.520;6.764;2022-12-07T11:40:19;101419.66;;;7.53
69785;BMP280;14177;51.520;6.764;2022-12-07T11:42:52;101409.38;;;7.47
69785;BMP280;14177;51.520;6.764;2022-12-07T11:45:27;101410.22;;;7.50
69785;BMP280;14177;51.520;6.764;2022-12-07T11:48:04;101399.88;;;7.49
69785;BMP280;14177;51.520;6.764;2022-12-07T11:53:21;101399.91;;;7.43
69785;BMP280;14177;51.520;6.764;2022-12-07T11:55:57;101407.69;;;7.44
69785;BMP280;14177;51.520;6.764;2022-12-07T12:03:44;101403.44;;;7.37
69785;BMP280;14177;51.520;6.764;2022-12-07T12:06:19;101411.16;;;7.39
69785;BMP280;14177;51.520;6.764;2022-12-07T12:08:52;101403.44;;;7.34
69785;BMP280;14177;51.520;6.764;2022-12-07T12:11:56;101395.66;;;7.39
69785;BMP280;14177;51.520;6.764;2022-12-07T12:20:29;101394.94;;;7.23
69785;BMP280;14177;51.520;6.764;2022-12-07T12:25:54;101394.03;;;7.27
69785;BMP280;14177;51.520;6.764;2022-12-07T12:28:56;101394.91;;;7.26
69785;BMP280;14177;51.520;6.764;2022-12-07T12:33:57;101385.34;;;7.33
69785;BMP280;14177;51.520;6.764;2022-12-07T12:36:43;101379.34;;;7.32
69785;BMP280;14177;51.520;6.764;2022-12-07T12:47:04;101374.09;;;7.41
69785;BMP280;14177;51.520;6.764;2022-12-07T12:50:17;101365.50;;;7.39
69785;BMP280;14177;51.520;6.764;2022-12-07T12:52:52;101356.91;;;7.36
69785;BMP280;14177;51.520;6.764;2022-12-07T12:58:32;101362.97;;;7.32
69785;BMP280;14177;51.520;6.764;2022-12-07T13:04:01;101357.81;;;7.29
69785;BMP280;14177;51.520;6.764;2022-12-07T13:06:35;101356.06;;;7.34
69785;BMP280;14177;51.520;6.764;2022-12-07T13:09:37;101356.94;;;7.34
69785;BMP280;14177;51.520;6.764;2022-12-07T13:12:05;101356.03;;;7.37
69785;BMP280;14177;51.520;6.764;2022-12-07T13:14:57;101356.06;;;7.34
69785;BMP280;14177;51.520;6.764;2022-12-07T13:20:06;101354.34;;;7.33
69785;BMP280;14177;51.520;6.764;2022-12-07T13:22:44;101357.81;;;7.29
69785;BMP280;14177;51.520;6.764;2022-12-07T13:25:19;101358.72;;;7.28
69785;BMP280;14177;51.520;6.764;2022-12-07T13:28:13;101357.03;;;7.22
69785;BMP280;14177;51.520;6.764;2022-12-07T13:30:58;101339.78;;;7.24
69785;BMP280;14177;51.520;6.764;2022-12-07T13:33:28;101337.25;;;7.20
69785;BMP280;14177;51.520;6.764;2022-12-07T13:35:56;101332.13;;;7.17
69785;BMP280;14177;51.520;6.764;2022-12-07T13:38:32;101325.25;;;7.13
69785;BMP280;14177;51.520;6.764;2022-12-07T13:41:19;101321.81;;;7.11
69785;BMP280;14177;51.520;6.764;2022-12-07T13:49:46;101309.81;;;7.04
69785;BMP280;14177;51.520;6.764;2022-12-07T13:52:25;101314.13;;;7.04
69785;BMP280;14177;51.520;6.764;2022-12-07T13:57:29;101311.53;;;7.05
69785;BMP280;14177;51.520;6.764;2022-12-07T13:59:57;101305.53;;;7.03
69785;BMP280;14177;51.520;6.764;2022-12-07T14:05:15;101297.75;;;7.06
69785;BMP280;14177;51.520;6.764;2022-12-07T14:08:03;101298.59;;;7.08
69785;BMP280;14177;51.520;6.764;2022-12-07T14:10:33;101295.97;;;7.14
69785;BMP280;14177;51.520;6.764;2022-12-07T14:13:02;101291.59;;;7.18
69785;BMP280;14177;51.520;6.764;2022-12-07T14:15:32;101295.06;;;7.18
69785;BMP280;14177;51.520;6.764;2022-12-07T14:18:01;101296.75;;;7.20
69785;BMP280;14177;51.520;6.764;2022-12-07T14:20:48;101288.19;;;7.16
69785;BMP280;14177;51.520;6.764;2022-12-07T14:23:25;101283.91;;;7.13
69785;BMP280;14177;51.520;6.764;2022-12-07T14:25:53;101277.91;;;7.11
69785;BMP280;14177;51.520;6.764;2022-12-07T14:28:32;101282.19;;;7.11
69785;BMP280;14177;51.520;6.764;2022-12-07T14:31:00;101282.22;;;7.09
69785;BMP280;14177;51.520;6.764;2022-12-07T14:33:27;101286.53;;;7.07
69785;BMP280;14177;51.520;6.764;2022-12-07T14:35:55;101276.28;;;7.01
69785;BMP280;14177;51.520;6.764;2022-12-07T14:38:25;101268.56;;;6.95
69785;BMP280;14177;51.520;6.764;2022-12-07T14:40:53;101268.59;;;6.92
69785;BMP280;14177;51.520;6.764;2022-12-07T14:43:20;101270.31;;;6.90
69785;BMP280;14177;51.520;6.764;2022-12-07T14:45:47;101271.22;;;6.88
69785;BMP280;14177;51.520;6.764;2022-12-07T14:48:15;101263.47;;;6.86
69785;BMP280;14177;51.520;6.764;2022-12-07T14:51:02;101259.19;;;6.82
69785;BMP280;14177;51.520;6.764;2022-12-07T14:53:51;101261.81;;;6.79
69785;BMP280;14177;51.520;6.764;2022-12-07T14:56:26;101262.72;;;6.77
69785;BMP280;14177;51.520;6.764;2022-12-07T14:58:54;101260.16;;;6.72
69785;BMP280;14177;51.520;6.764;2022-12-07T15:01:21;101267.97;;;6.65
69785;BMP280;14177;51.520;6.764;2022-12-07T15:03:48;101275.72;;;6.60
69785;BMP280;14177;51.520;6.764;2022-12-07T15:06:17;101268.03;;;6.56
69785;BMP280;14177;51.520;6.764;2022-12-07T15:08:44;101268.94;;;6.50
69785;BMP280;14177;51.520;6.764;2022-12-07T15:11:13;101267.25;;;6.46
69785;BMP280;14177;51.520;6.764;2022-12-07T15:13:40;101265.53;;;6.42
69785;BMP280;14177;51.520;6.764;2022-12-07T15:16:25;101264.69;;;6.39
69785;BMP280;14177;51.520;6.764;2022-12-07T15:18:53;101266.41;;;6.37
69785;BMP280;14177;51.520;6.764;2022-12-07T15:21:40;101264.75;;;6.34
69785;BMP280;14177;51.520;6.764;2022-12-07T15:24:09;101265.63;;;6.30
69785;BMP280;14177;51.520;6.764;2022-12-07T15:26:37;101269.06;;;6.28
69785;BMP280;14177;51.520;6.764;2022-12-07T15:29:04;101263.94;;;6.23
69785;BMP280;14177;51.520;6.764;2022-12-07T15:31:31;101262.22;;;6.22
69785;BMP280;14177;51.520;6.764;2022-12-07T15:34:18;101261.41;;;6.19
69785;BMP280;14177;51.520;6.764;2022-12-07T15:36:45;101253.66;;;6.14
69785;BMP280;14177;51.520;6.764;2022-12-07T15:39:12;101250.25;;;6.09
69785;BMP280;14177;51.520;6.764;2022-12-07T15:41:40;101259.72;;;6.07
69785;BMP280;14177;51.520;6.764;2022-12-07T15:44:11;101257.16;;;6.04
69785;BMP280;14177;51.520;6.764;2022-12-07T15:46:57;101251.16;;;5.99
69785;BMP280;14177;51.520;6.764;2022-12-07T15:49:24;101253.75;;;5.97
69785;BMP280;14177;51.520;6.764;2022-12-07T15:51:50;101251.19;;;5.95
69785;BMP280;14177;51.520;6.764;2022-12-07T15:54:21;101262.38;;;5.93
69785;BMP280;14177;51.520;6.764;2022-12-07T15:56:48;101248.63;;;5.91
69785;BMP280;14177;51.520;6.764;2022-12-07T15:59:15;101256.38;;;5.89
69785;BMP280;14177;51.520;6.764;2022-12-07T16:01:43;101256.41;;;5.86
69785;BMP280;14177;51.520;6.764;2022-12-07T16:04:10;101250.41;;;5.83
69785;BMP280;14177;51.520;6.764;2022-12-07T16:06:37;101250.41;;;5.83
69785;BMP280;14177;51.520;6.764;2022-12-07T16:09:05;101243.53;;;5.80
69785;BMP280;14177;51.520;6.764;2022-12-07T16:11:32;101246.13;;;5.82
69785;BMP280;14177;51.520;6.764;2022-12-07T16:13:59;101243.53;;;5.83
69785;BMP280;14177;51.520;6.764;2022-12-07T16:16:26;101234.94;;;5.83
69785;BMP280;14177;51.520;6.764;2022-12-07T16:18:54;101240.09;;;5.81
69785;BMP280;14177;51.520;6.764;2022-12-07T16:21:21;101235.78;;;5.80
69785;BMP280;14177;51.520;6.764;2022-12-07T16:23:51;101237.53;;;5.80
69785;BMP280;14177;51.520;6.764;2022-12-07T16:26:20;101233.25;;;5.79
69785;BMP280;14177;51.520;6.764;2022-12-07T16:28:51;101236.69;;;5.78
69785;BMP280;14177;51.520;6.764;2022-12-07T16:31:21;101235.78;;;5.77
69785;BMP280;14177;51.520;6.764;2022-12-07T16:33:49;101230.63;;;5.80
69785;BMP280;14177;51.520;6.764;2022-12-07T16:36:16;101236.69;;;5.78
69785;BMP280;14177;51.520;6.764;2022-12-07T16:39:04;101221.22;;;5.78
69785;BMP280;14177;51.520;6.764;2022-12-07T16:41:31;101234.09;;;5.79
69785;BMP280;14177;51.520;6.764;2022-12-07T16:44:03;101225.47;;;5.80
69785;BMP280;14177;51.520;6.764;2022-12-07T16:46:32;101232.38;;;5.83
69785;BMP280;14177;51.520;6.764;2022-12-07T16:48:59;101222.88;;;5.85
69785;BMP280;14177;51.520;6.764;2022-12-07T16:51:26;101212.56;;;5.83
69785;BMP280;14177;51.520;6.764;2022-12-07T16:53:53;101216.00;;;5.84
69785;BMP280;14177;51.520;6.764;2022-12-07T16:56:20;101217.69;;;5.88
69785;BMP280;14177;51.520;6.764;2022-12-07T16:58:47;101211.69;;;5.86
69785;BMP280;14177;51.520;6.764;2022-12-07T17:01:18;101215.97;;;5.87
69785;BMP280;14177;51.520;6.764;2022-12-07T17:03:46;101213.41;;;5.87
69785;BMP280;14177;51.520;6.764;2022-12-07T17:06:21;101214.25;;;5.86
69785;BMP280;14177;51.520;6.764;2022-12-07T17:08:49;101205.72;;;5.81
69785;BMP280;14177;51.520;6.764;2022-12-07T17:11:20;101204.00;;;5.83
69785;BMP280;14177;51.520;6.764;2022-12-07T17:13:47;101197.09;;;5.85